Brunswick, Tennessee
Current Conditions -  °F | °C
As of 9:50 AM on Friday 28 Nov 2014 (Local Time) from KNQA Reporting Station
Clear Clear  
Wind Chill: 36°   Ceiling: Unl
Heat Index: 41°   Visibility: 10mi
Dew Point: 28°   Wind: 7mph
Humidity: 61%   Direction: 150°SSE
Pressure: 30.38"   Gusts: NA
Location:  35.27°N, 89.77°W
Report Text: KNQA 281550Z 15006KT 10SM SKC 05/M02 A3038
Loading
Personal Weather Stations






























Interactive Weather Map New forecast layout! Learn more

10-Day Weather Forecast

Advertisements
Track Severe Weather on mobile